createdAt,value
2018-09-21T00:01:38.217Z,94.57
2018-09-21T00:04:11.558Z,94.66
2018-09-21T00:06:40.860Z,94.79
2018-09-21T00:09:11.513Z,95.36
2018-09-21T00:11:40.471Z,95.13
2018-09-21T00:14:09.474Z,95.70
2018-09-21T00:16:38.461Z,95.29
2018-09-21T00:19:07.415Z,95.26
2018-09-21T00:21:36.546Z,95.55
2018-09-21T00:24:05.489Z,95.60
2018-09-21T00:26:34.491Z,95.76
2018-09-21T00:29:03.501Z,95.40
2018-09-21T00:31:32.539Z,95.68
2018-09-21T00:34:01.507Z,96.47
2018-09-21T00:36:30.492Z,96.15
2018-09-21T00:38:59.509Z,96.61
2018-09-21T00:41:28.468Z,97.42
2018-09-21T00:43:57.556Z,96.72
2018-09-21T00:46:26.614Z,96.66
2018-09-21T00:48:55.569Z,96.81
2018-09-21T00:51:24.561Z,96.92
2018-09-21T00:53:53.533Z,96.95
2018-09-21T00:56:22.567Z,97.01
2018-09-21T00:58:51.494Z,97.86
2018-09-21T01:01:20.432Z,97.63
2018-09-21T01:03:49.489Z,98.54
2018-09-21T01:06:18.449Z,98.16
2018-09-21T01:08:47.474Z,98.40
2018-09-21T01:11:16.426Z,98.66
2018-09-21T01:13:45.370Z,99.14
2018-09-21T01:16:14.372Z,98.34
2018-09-21T01:18:43.402Z,98.31
2018-09-21T01:21:12.400Z,98.68
2018-09-21T01:23:41.349Z,98.39
2018-09-21T01:26:10.381Z,98.08
2018-09-21T01:28:39.384Z,98.10
2018-09-21T01:31:08.341Z,98.45
2018-09-21T01:33:37.359Z,97.79
2018-09-21T01:36:06.337Z,98.73
2018-09-21T01:38:35.283Z,98.52
2018-09-21T01:41:04.260Z,98.87
2018-09-21T01:43:33.235Z,98.44
2018-09-21T01:46:02.176Z,99.11
2018-09-21T01:48:31.196Z,99.37
2018-09-21T01:51:00.137Z,99.68
2018-09-21T01:53:29.177Z,99.88
2018-09-21T01:55:58.188Z,100.00
2018-09-21T01:58:27.162Z,100.00
2018-09-21T02:00:56.113Z,100.00
2018-09-21T02:03:25.956Z,100.00
2018-09-21T02:05:54.951Z,100.00
2018-09-21T02:08:23.999Z,100.00
2018-09-21T02:10:53.003Z,100.00
2018-09-21T02:13:22.084Z,100.00
2018-09-21T02:15:51.289Z,100.00
2018-09-21T02:18:20.295Z,100.00
2018-09-21T02:20:49.349Z,100.00
2018-09-21T02:23:18.316Z,100.00
2018-09-21T02:25:47.276Z,100.00
2018-09-21T02:28:16.371Z,100.00
2018-09-21T02:30:45.317Z,100.00
2018-09-21T02:33:14.392Z,100.00
2018-09-21T02:35:43.331Z,100.00
2018-09-21T02:38:12.434Z,100.00
2018-09-21T02:40:41.477Z,100.00
2018-09-21T02:43:10.610Z,100.00
2018-09-21T02:45:39.592Z,100.00
2018-09-21T02:48:08.689Z,100.00
2018-09-21T02:50:37.767Z,100.00
2018-09-21T02:53:06.717Z,100.00
2018-09-21T02:55:35.769Z,100.00
2018-09-21T02:58:04.777Z,100.00
2018-09-21T03:00:33.849Z,100.00
2018-09-21T03:03:02.812Z,100.00
2018-09-21T03:05:31.834Z,100.00
2018-09-21T03:08:00.872Z,100.00
2018-09-21T03:10:29.868Z,100.00
2018-09-21T03:12:58.900Z,100.00
2018-09-21T03:15:27.930Z,100.00
2018-09-21T03:17:56.927Z,100.00
2018-09-21T03:20:25.895Z,100.00
2018-09-21T03:22:54.920Z,100.00
2018-09-21T03:25:23.996Z,100.00
2018-09-21T03:27:52.981Z,100.00
2018-09-21T03:30:21.996Z,100.00
2018-09-21T03:32:51.014Z,100.00
2018-09-21T03:35:20.014Z,100.00
2018-09-21T03:37:49.024Z,100.00
2018-09-21T03:40:17.981Z,100.00
2018-09-21T03:42:47.055Z,100.00
2018-09-21T03:45:16.025Z,100.00
2018-09-21T03:47:45.040Z,100.00
2018-09-21T03:50:14.007Z,100.00
2018-09-21T03:52:43.034Z,100.00
2018-09-21T03:55:12.003Z,100.00
2018-09-21T03:57:40.971Z,100.00
2018-09-21T04:00:10.393Z,100.00
2018-09-21T04:02:39.335Z,100.00
2018-09-21T04:05:08.282Z,100.00
2018-09-21T04:07:37.255Z,100.00
2018-09-21T04:10:06.406Z,100.00
2018-09-21T04:12:35.409Z,100.00
2018-09-21T04:15:04.491Z,100.00
2018-09-21T04:17:33.572Z,100.00
2018-09-21T04:20:02.532Z,100.00
2018-09-21T04:22:31.799Z,100.00
2018-09-21T04:25:01.239Z,100.00
2018-09-21T04:27:30.348Z,100.00
2018-09-21T04:29:59.486Z,100.00
2018-09-21T04:32:28.424Z,100.00
2018-09-21T04:34:57.532Z,100.00
2018-09-21T04:37:26.509Z,100.00
2018-09-21T04:39:55.503Z,100.00
2018-09-21T04:42:24.496Z,100.00
2018-09-21T04:44:53.470Z,100.00
2018-09-21T04:47:22.436Z,100.00
2018-09-21T04:49:51.458Z,100.00
2018-09-21T04:52:20.520Z,98.68
2018-09-21T04:54:49.557Z,97.37
2018-09-21T04:57:18.602Z,97.53
2018-09-21T04:59:47.538Z,97.43
2018-09-21T05:02:16.499Z,95.44
2018-09-21T05:04:45.442Z,95.87
2018-09-21T05:07:14.382Z,94.82
2018-09-21T05:09:43.350Z,93.38
2018-09-21T05:12:12.437Z,92.08
2018-09-21T05:14:41.379Z,90.54
2018-09-21T05:17:10.362Z,89.36
2018-09-21T05:19:39.401Z,88.31
2018-09-21T05:22:08.485Z,88.03
2018-09-21T05:24:37.443Z,86.16
2018-09-21T05:27:06.465Z,86.34
2018-09-21T05:29:35.484Z,84.36
2018-09-21T05:32:04.482Z,84.49
2018-09-21T05:34:33.541Z,82.84
2018-09-21T05:37:02.648Z,81.08
2018-09-21T05:39:31.633Z,79.44
2018-09-21T05:42:00.643Z,79.34
2018-09-21T05:44:29.643Z,79.20
2018-09-21T05:46:58.645Z,79.02
2018-09-21T05:49:27.603Z,77.36
2018-09-21T05:51:56.541Z,77.03
2018-09-21T05:54:25.536Z,77.32
2018-09-21T05:56:54.597Z,79.68
2018-09-21T05:59:23.689Z,79.36
2018-09-21T06:01:52.640Z,79.81
2018-09-21T06:04:21.600Z,76.39
2018-09-21T06:06:50.554Z,75.47
2018-09-21T06:09:19.513Z,76.04
2018-09-21T06:11:48.529Z,75.98
2018-09-21T06:14:17.534Z,74.59
2018-09-21T06:16:46.608Z,74.10
2018-09-21T06:19:15.624Z,73.48
2018-09-21T06:21:44.575Z,73.72
2018-09-21T06:24:13.594Z,73.44
2018-09-21T06:26:42.559Z,72.88
2018-09-21T06:29:11.601Z,72.34
2018-09-21T06:31:40.533Z,72.55
2018-09-21T06:34:09.552Z,73.80
2018-09-21T06:36:38.571Z,72.98
2018-09-21T06:39:10.587Z,72.51
2018-09-21T06:41:39.888Z,72.64
2018-09-21T06:44:09.074Z,71.03
2018-09-21T06:46:38.067Z,72.19
2018-09-21T06:49:07.198Z,74.42
2018-09-21T06:51:36.251Z,72.79
2018-09-21T06:54:05.248Z,73.74
2018-09-21T06:56:34.279Z,72.29
2018-09-21T06:59:03.261Z,70.92
2018-09-21T07:01:32.267Z,69.99
2018-09-21T07:04:01.224Z,69.99
2018-09-21T07:06:30.239Z,69.05
2018-09-21T07:08:59.260Z,68.29
2018-09-21T07:11:28.204Z,68.69
2018-09-21T07:13:57.219Z,67.48
2018-09-21T07:16:26.309Z,68.66
2018-09-21T07:18:55.287Z,68.92
2018-09-21T07:21:24.991Z,65.85
2018-09-21T07:23:53.975Z,66.81
2018-09-21T07:26:23.142Z,66.04
2018-09-21T07:28:52.300Z,64.68
2018-09-21T07:31:21.316Z,65.70
2018-09-21T07:33:50.342Z,66.30
2018-09-21T07:36:19.389Z,66.98
2018-09-21T07:38:48.428Z,69.42
2018-09-21T07:41:17.391Z,68.39
2018-09-21T07:43:46.570Z,67.81
2018-09-21T07:46:15.548Z,67.41
2018-09-21T07:48:46.516Z,66.30
2018-09-21T07:51:15.548Z,67.47
2018-09-21T07:53:44.542Z,64.79
2018-09-21T07:56:13.710Z,63.51
2018-09-21T07:58:42.755Z,65.03
2018-09-21T08:01:11.729Z,63.96
2018-09-21T08:03:40.756Z,63.53
2018-09-21T08:06:09.761Z,63.85
2018-09-21T08:08:38.738Z,62.42
2018-09-21T08:11:07.691Z,62.24
2018-09-21T08:13:36.719Z,59.89
2018-09-21T08:16:05.738Z,60.59
2018-09-21T08:18:34.764Z,60.37
2018-09-21T08:21:03.730Z,61.67
2018-09-21T08:23:32.681Z,59.12
2018-09-21T08:26:01.713Z,57.24
2018-09-21T08:28:30.674Z,55.44
2018-09-21T08:30:59.660Z,56.27
2018-09-21T08:33:28.608Z,54.94
2018-09-21T08:35:57.619Z,55.12
2018-09-21T08:38:26.638Z,54.27
2018-09-21T08:40:56.305Z,53.26
2018-09-21T08:43:25.329Z,50.14
2018-09-21T08:45:54.319Z,52.01
2018-09-21T08:48:23.283Z,51.07
2018-09-21T08:50:52.232Z,51.71
2018-09-21T08:53:21.371Z,47.54
2018-09-21T08:55:50.328Z,47.43
2018-09-21T08:58:19.360Z,47.08
2018-09-21T09:00:48.399Z,44.82
2018-09-21T09:03:17.441Z,45.85
2018-09-21T09:05:52.284Z,45.40
2018-09-21T09:08:22.897Z,45.40
2018-09-21T09:10:52.073Z,43.27
2018-09-21T09:13:21.079Z,41.22
2018-09-21T09:15:50.911Z,40.21
2018-09-21T09:18:19.880Z,40.50
2018-09-21T09:20:48.848Z,39.91
2018-09-21T09:23:17.843Z,41.66
2018-09-21T09:25:46.816Z,41.47
2018-09-21T09:28:15.806Z,39.82
2018-09-21T09:30:44.750Z,41.47
2018-09-21T09:33:13.749Z,39.84
2018-09-21T09:35:42.753Z,38.20
2018-09-21T09:38:11.812Z,40.44
2018-09-21T09:40:40.762Z,35.75
2018-09-21T09:43:09.860Z,37.42
2018-09-21T09:45:38.935Z,36.19
2018-09-21T09:48:07.884Z,36.63
2018-09-21T09:50:36.893Z,38.23
2018-09-21T09:53:06.326Z,38.36
2018-09-21T09:55:35.272Z,35.61
2018-09-21T09:58:04.220Z,35.13
2018-09-21T10:00:36.242Z,35.12
2018-09-21T10:03:05.285Z,35.72
2018-09-21T10:05:34.325Z,34.65
2018-09-21T10:08:03.280Z,35.31
2018-09-21T10:10:32.254Z,35.37
2018-09-21T10:13:01.226Z,35.97
2018-09-21T10:15:30.233Z,35.30
2018-09-21T10:17:59.234Z,34.70
2018-09-21T10:20:28.316Z,33.20
2018-09-21T10:22:57.227Z,33.41
2018-09-21T10:25:26.202Z,33.20
2018-09-21T10:27:55.404Z,31.46
2018-09-21T10:30:24.169Z,34.30
2018-09-21T10:32:53.124Z,31.81
2018-09-21T10:35:22.061Z,34.01
2018-09-21T10:37:51.058Z,33.76
2018-09-21T10:40:20.008Z,33.01
2018-09-21T10:42:49.190Z,33.61
2018-09-21T10:45:18.126Z,33.03
2018-09-21T10:47:47.111Z,31.98
2018-09-21T10:50:16.125Z,32.52
2018-09-21T10:52:45.171Z,32.02
2018-09-21T10:55:14.102Z,29.95
2018-09-21T10:57:43.109Z,31.86
2018-09-21T11:00:12.415Z,30.76
2018-09-21T11:02:41.374Z,31.22
2018-09-21T11:05:10.334Z,29.72
2018-09-21T11:07:39.299Z,30.18
2018-09-21T11:10:08.228Z,28.84
2018-09-21T11:12:37.415Z,27.79
2018-09-21T11:15:06.394Z,28.88
2018-09-21T11:17:35.383Z,28.29
2018-09-21T11:20:04.371Z,28.81
2018-09-21T11:22:33.386Z,27.33
2018-09-21T11:25:02.349Z,25.78
2018-09-21T11:27:31.275Z,25.96
2018-09-21T11:30:00.238Z,28.26
2018-09-21T11:32:29.178Z,24.85
2018-09-21T11:34:58.174Z,25.62
2018-09-21T11:37:27.108Z,24.48
2018-09-21T11:39:56.064Z,25.47
2018-09-21T11:42:25.068Z,26.03
2018-09-21T11:44:54.103Z,24.68
2018-09-21T11:47:23.287Z,23.82
2018-09-21T11:49:52.159Z,24.88
2018-09-21T11:52:21.121Z,23.30
2018-09-21T11:54:50.049Z,23.18
2018-09-21T11:57:18.979Z,25.31
2018-09-21T11:59:47.895Z,24.77
2018-09-21T12:02:16.852Z,27.03
2018-09-21T12:04:45.928Z,25.39
2018-09-21T12:07:14.923Z,26.59
2018-09-21T12:09:43.962Z,25.97
2018-09-21T12:12:12.908Z,26.02
2018-09-21T12:14:42.033Z,28.00
2018-09-21T12:17:11.066Z,26.99
2018-09-21T12:19:40.054Z,25.57
2018-09-21T12:22:09.029Z,26.01
2018-09-21T12:24:38.075Z,26.34
2018-09-21T12:27:07.081Z,26.27
2018-09-21T12:29:36.096Z,26.81
2018-09-21T12:32:05.159Z,27.34
2018-09-21T12:34:34.140Z,27.11
2018-09-21T12:37:03.109Z,27.96
2018-09-21T12:39:32.081Z,28.93
2018-09-21T12:42:01.113Z,29.76
2018-09-21T12:44:30.156Z,29.07
2018-09-21T12:46:59.152Z,28.33
2018-09-21T12:49:28.131Z,28.83
2018-09-21T12:51:57.185Z,29.10
2018-09-21T12:54:26.139Z,28.06
2018-09-21T12:56:55.263Z,30.30
2018-09-21T12:59:24.231Z,30.96
2018-09-21T13:01:53.216Z,31.08
2018-09-21T13:04:22.250Z,30.11
2018-09-21T13:06:51.240Z,29.63
2018-09-21T13:09:20.199Z,30.52
2018-09-21T13:11:49.166Z,30.39
2018-09-21T13:14:18.134Z,29.74
2018-09-21T13:16:47.158Z,29.36
2018-09-21T13:19:16.365Z,30.70
2018-09-21T13:21:45.327Z,29.85
2018-09-21T13:24:14.289Z,30.70
2018-09-21T13:26:43.291Z,30.53
2018-09-21T13:29:12.284Z,30.40
2018-09-21T13:31:41.253Z,31.30
2018-09-21T13:34:10.270Z,31.28
2018-09-21T13:36:39.233Z,30.89
2018-09-21T13:39:10.875Z,32.35
2018-09-21T13:41:40.388Z,31.24
2018-09-21T13:44:09.579Z,30.83
2018-09-21T13:46:38.520Z,31.71
2018-09-21T13:49:07.515Z,33.01
2018-09-21T13:51:36.494Z,32.20
2018-09-21T13:54:05.445Z,31.64
2018-09-21T13:56:34.398Z,30.97
2018-09-21T13:59:03.386Z,31.91
2018-09-21T14:01:32.335Z,31.49
2018-09-21T14:04:01.406Z,31.38
2018-09-21T14:06:30.394Z,35.14
2018-09-21T14:08:59.449Z,31.63
2018-09-21T14:11:28.419Z,32.02
2018-09-21T14:13:57.369Z,33.76
2018-09-21T14:16:26.387Z,32.84
2018-09-21T14:18:55.357Z,33.50
2018-09-21T14:21:24.422Z,34.36
2018-09-21T14:23:53.360Z,34.86
2018-09-21T14:26:22.400Z,35.04
2018-09-21T14:28:51.400Z,37.50
2018-09-21T14:31:20.508Z,33.37
2018-09-21T14:33:49.503Z,33.55
2018-09-21T14:36:18.467Z,33.78
2018-09-21T14:38:47.445Z,34.93
2018-09-21T14:41:16.437Z,34.41
2018-09-21T14:43:45.470Z,34.39
2018-09-21T14:46:14.486Z,35.29
2018-09-21T14:48:43.495Z,36.19
2018-09-21T14:51:12.532Z,36.63
2018-09-21T14:53:41.531Z,37.13
2018-09-21T14:56:10.526Z,35.89
2018-09-21T14:58:39.683Z,36.27
2018-09-21T15:01:08.461Z,37.31
2018-09-21T15:03:37.536Z,38.29
2018-09-21T15:06:06.641Z,38.72
2018-09-21T15:08:35.636Z,38.39
2018-09-21T15:11:04.744Z,38.46
2018-09-21T15:13:33.818Z,38.71
2018-09-21T15:16:02.852Z,39.24
2018-09-21T15:18:32.039Z,39.14
2018-09-21T15:21:01.048Z,40.33
2018-09-21T15:23:30.443Z,40.32
2018-09-21T15:25:59.422Z,42.29
2018-09-21T15:28:28.448Z,43.89
2018-09-21T15:30:57.394Z,48.54
2018-09-21T15:33:26.433Z,49.41
2018-09-21T15:35:55.367Z,51.70
2018-09-21T15:38:24.294Z,53.97
2018-09-21T15:40:53.243Z,53.30
2018-09-21T15:43:22.271Z,54.20
2018-09-21T15:45:51.331Z,55.88
2018-09-21T15:48:20.325Z,58.34
2018-09-21T15:50:49.299Z,58.73
2018-09-21T15:53:18.235Z,58.84
2018-09-21T15:55:47.292Z,59.16
2018-09-21T15:58:16.296Z,58.21
2018-09-21T16:00:45.297Z,58.64
2018-09-21T16:03:14.325Z,58.89
2018-09-21T16:05:43.307Z,60.73
2018-09-21T16:08:12.304Z,59.15
2018-09-21T16:10:41.317Z,61.45
2018-09-21T16:13:10.355Z,61.41
2018-09-21T16:15:39.300Z,62.46
2018-09-21T16:18:08.359Z,62.70
2018-09-21T16:20:37.341Z,62.13
2018-09-21T16:23:06.548Z,64.04
2018-09-21T16:25:35.644Z,64.27
2018-09-21T16:28:04.643Z,65.93
2018-09-21T16:30:33.630Z,66.38
2018-09-21T16:33:02.680Z,67.40
2018-09-21T16:35:31.676Z,65.71
2018-09-21T16:38:00.743Z,66.34
2018-09-21T16:40:29.771Z,65.93
2018-09-21T16:42:58.772Z,66.83
2018-09-21T16:45:27.767Z,67.17
2018-09-21T16:47:56.822Z,67.57
2018-09-21T16:50:25.785Z,68.75
2018-09-21T16:52:54.763Z,67.65
2018-09-21T16:55:23.734Z,68.99
2018-09-21T16:57:52.818Z,68.32
2018-09-21T17:00:21.889Z,69.25
2018-09-21T17:02:50.973Z,67.35
2018-09-21T17:05:19.942Z,68.80
2018-09-21T17:07:48.888Z,70.08
2018-09-21T17:10:17.857Z,69.93
2018-09-21T17:12:46.857Z,71.07
2018-09-21T17:15:15.878Z,70.08
2018-09-21T17:17:44.865Z,70.25
2018-09-21T17:20:13.842Z,69.77
2018-09-21T17:22:42.867Z,70.91
2018-09-21T17:25:11.888Z,70.87
2018-09-21T17:27:40.965Z,71.23
2018-09-21T17:30:09.913Z,71.55
2018-09-21T17:32:38.947Z,70.83
2018-09-21T17:35:08.165Z,71.47
2018-09-21T17:37:37.147Z,72.83
2018-09-21T17:40:06.296Z,72.77
2018-09-21T17:42:35.241Z,72.98
2018-09-21T17:45:04.278Z,72.68
2018-09-21T17:47:33.389Z,72.65
2018-09-21T17:50:02.363Z,72.70
2018-09-21T17:52:31.377Z,73.25
2018-09-21T17:55:00.329Z,73.01
2018-09-21T17:57:29.273Z,73.19
2018-09-21T17:59:58.244Z,72.97
2018-09-21T18:02:27.356Z,73.70
2018-09-21T18:04:56.415Z,74.68
2018-09-21T18:07:25.413Z,76.27
2018-09-21T18:09:54.797Z,75.41
2018-09-21T18:12:23.793Z,76.10
2018-09-21T18:14:52.764Z,76.41
2018-09-21T18:17:21.732Z,76.95
2018-09-21T18:19:50.691Z,76.81
2018-09-21T18:22:19.717Z,76.40
2018-09-21T18:24:48.904Z,77.47
2018-09-21T18:27:17.877Z,77.06
2018-09-21T18:29:46.847Z,77.34
2018-09-21T18:32:15.874Z,77.03
2018-09-21T18:34:44.829Z,77.12
2018-09-21T18:37:13.792Z,77.51
2018-09-21T18:39:42.836Z,78.30
2018-09-21T18:42:11.803Z,76.98
2018-09-21T18:44:40.890Z,77.33
2018-09-21T18:47:09.832Z,77.34
2018-09-21T18:49:38.892Z,78.67
2018-09-21T18:52:07.895Z,78.39
2018-09-21T18:54:36.949Z,76.91
2018-09-21T18:57:05.951Z,77.43
2018-09-21T18:59:34.891Z,76.05
2018-09-21T19:02:03.840Z,76.31
2018-09-21T19:04:32.810Z,75.88
2018-09-21T19:07:01.838Z,74.99
2018-09-21T19:09:30.827Z,75.12
2018-09-21T19:11:59.884Z,75.06
2018-09-21T19:14:28.841Z,75.02
2018-09-21T19:16:57.901Z,74.34
2018-09-21T19:19:27.011Z,73.93
2018-09-21T19:21:55.973Z,73.74
2018-09-21T19:24:24.929Z,72.66
2018-09-21T19:26:53.900Z,72.63
2018-09-21T19:29:22.880Z,72.83
2018-09-21T19:31:51.898Z,72.50
2018-09-21T19:34:20.868Z,72.32
2018-09-21T19:36:49.909Z,72.34
2018-09-21T19:39:18.992Z,73.01
2018-09-21T19:41:48.215Z,72.79
2018-09-21T19:44:17.224Z,73.43
2018-09-21T19:46:46.287Z,72.63
2018-09-21T19:49:15.270Z,72.10
2018-09-21T19:51:44.229Z,71.73
2018-09-21T19:54:13.164Z,72.69
2018-09-21T19:56:42.123Z,71.78
2018-09-21T19:59:11.263Z,72.56
2018-09-21T20:01:40.335Z,72.27
2018-09-21T20:04:09.412Z,72.45
2018-09-21T20:06:38.408Z,71.90
2018-09-21T20:09:09.769Z,71.75
2018-09-21T20:11:38.771Z,70.94
2018-09-21T20:14:07.739Z,70.65
2018-09-21T20:16:36.748Z,70.34
2018-09-21T20:19:05.756Z,71.12
2018-09-21T20:21:34.710Z,69.63
2018-09-21T20:24:03.719Z,69.84
2018-09-21T20:26:32.744Z,70.24
2018-09-21T20:29:01.953Z,70.57
2018-09-21T20:31:35.939Z,71.05
2018-09-21T20:34:04.923Z,71.07
2018-09-21T20:36:33.944Z,71.22
2018-09-21T20:39:02.921Z,70.73
2018-09-21T20:41:31.917Z,71.69
2018-09-21T20:44:00.914Z,71.69
2018-09-21T20:46:29.956Z,72.02
2018-09-21T20:48:58.942Z,73.58
2018-09-21T20:51:27.900Z,75.03
2018-09-21T20:53:56.916Z,75.02
2018-09-21T20:56:25.880Z,75.29
2018-09-21T20:58:55.009Z,75.68
2018-09-21T21:01:24.099Z,77.38
2018-09-21T21:03:53.161Z,77.31
2018-09-21T21:06:22.142Z,77.74
2018-09-21T21:08:51.114Z,77.25
2018-09-21T21:11:20.073Z,77.10
2018-09-21T21:13:49.048Z,77.58
2018-09-21T21:16:18.105Z,79.37
2018-09-21T21:18:47.119Z,79.96
2018-09-21T21:21:16.126Z,80.00
2018-09-21T21:23:45.121Z,81.54
2018-09-21T21:26:14.161Z,81.64
2018-09-21T21:28:43.125Z,81.77
2018-09-21T21:31:12.133Z,82.05
2018-09-21T21:33:41.162Z,81.87
2018-09-21T21:36:10.145Z,81.94
2018-09-21T21:38:39.113Z,83.18
2018-09-21T21:41:08.068Z,82.78
2018-09-21T21:43:37.033Z,83.62
2018-09-21T21:46:06.056Z,84.17
2018-09-21T21:48:35.093Z,83.36
2018-09-21T21:51:04.168Z,85.08
2018-09-21T21:53:33.155Z,85.17
2018-09-21T21:56:02.179Z,85.14
2018-09-21T21:58:31.166Z,84.80
2018-09-21T22:01:05.183Z,85.07
2018-09-21T22:03:34.131Z,85.58
2018-09-21T22:06:03.133Z,85.84
2018-09-21T22:08:32.228Z,85.42
2018-09-21T22:11:04.939Z,86.53
2018-09-21T22:13:39.002Z,86.05
2018-09-21T22:16:08.092Z,87.03
2018-09-21T22:18:37.079Z,86.83
2018-09-21T22:21:06.016Z,88.13
2018-09-21T22:23:35.008Z,88.54
2018-09-21T22:26:03.977Z,88.36
2018-09-21T22:28:33.023Z,89.29
2018-09-21T22:31:02.011Z,88.78
2018-09-21T22:33:31.010Z,89.41
2018-09-21T22:36:00.025Z,89.18
2018-09-21T22:38:29.305Z,90.41
2018-09-21T22:40:58.291Z,90.77
2018-09-21T22:43:27.230Z,90.36
2018-09-21T22:45:56.220Z,91.55
2018-09-21T22:48:25.148Z,92.12
2018-09-21T22:50:54.261Z,91.51
2018-09-21T22:53:23.220Z,92.26
2018-09-21T22:55:52.298Z,92.33
2018-09-21T22:58:21.374Z,92.84
2018-09-21T23:00:50.306Z,93.78
2018-09-21T23:03:19.292Z,93.29
2018-09-21T23:05:48.297Z,94.25
2018-09-21T23:08:17.306Z,95.03
2018-09-21T23:10:46.328Z,95.68
2018-09-21T23:13:15.363Z,95.88
2018-09-21T23:15:44.351Z,95.93
2018-09-21T23:18:13.357Z,95.38
2018-09-21T23:20:42.320Z,96.51
2018-09-21T23:23:11.292Z,96.10
2018-09-21T23:25:40.244Z,96.60
2018-09-21T23:28:10.166Z,96.50
2018-09-21T23:30:39.174Z,96.36
2018-09-21T23:33:08.253Z,97.08
2018-09-21T23:35:37.254Z,97.13
2018-09-21T23:38:06.244Z,96.66
2018-09-21T23:40:35.199Z,96.72
2018-09-21T23:43:04.233Z,96.83
2018-09-21T23:45:33.214Z,96.37
2018-09-21T23:48:02.248Z,96.80
2018-09-21T23:50:31.191Z,97.66
2018-09-21T23:53:00.189Z,97.18
2018-09-21T23:55:29.235Z,96.62
2018-09-21T23:57:58.247Z,97.17
